createdAt,value
2019-05-13T00:02:01.069Z,48.65
2019-05-13T00:04:33.746Z,54.60
2019-05-13T00:07:04.852Z,47.33
2019-05-13T00:09:35.793Z,49.73
2019-05-13T00:12:06.970Z,48.05
2019-05-13T00:14:37.911Z,41.53
2019-05-13T00:17:08.744Z,46.35
2019-05-13T00:19:39.603Z,45.52
2019-05-13T00:22:11.425Z,43.20
2019-05-13T00:24:43.810Z,48.85
2019-05-13T00:27:14.438Z,41.13
2019-05-13T00:29:46.817Z,45.40
2019-05-13T00:32:17.762Z,44.67
2019-05-13T00:34:48.678Z,46.25
2019-05-13T00:37:20.948Z,51.77
2019-05-13T00:39:54.190Z,48.78
2019-05-13T00:42:24.708Z,50.28
2019-05-13T00:44:55.608Z,51.08
2019-05-13T00:47:27.306Z,62.33
2019-05-13T00:49:58.404Z,47.35
2019-05-13T00:52:30.261Z,51.65
2019-05-13T00:55:04.084Z,48.33
2019-05-13T00:57:34.142Z,49.95
2019-05-13T01:00:09.015Z,46.05
2019-05-13T01:02:41.159Z,44.65
2019-05-13T01:05:14.368Z,50.45
2019-05-13T01:07:44.763Z,46.70
2019-05-13T01:10:15.838Z,47.45
2019-05-13T01:12:46.974Z,49.98
2019-05-13T01:15:19.590Z,50.75
2019-05-13T01:17:50.394Z,50.20
2019-05-13T01:20:23.423Z,50.80
2019-05-13T01:22:54.228Z,48.15
2019-05-13T01:25:24.998Z,47.10
2019-05-13T01:27:55.992Z,52.50
2019-05-13T01:30:27.018Z,47.45
2019-05-13T01:32:57.856Z,50.55
2019-05-13T01:35:29.813Z,50.40
2019-05-13T01:38:00.751Z,46.10
2019-05-13T01:40:35.040Z,44.93
2019-05-13T01:43:07.849Z,55.58
2019-05-13T01:45:38.924Z,47.40
2019-05-13T01:48:09.825Z,50.73
2019-05-13T01:50:40.757Z,49.88
2019-05-13T01:53:14.269Z,51.05
2019-05-13T01:55:44.535Z,51.70
2019-05-13T01:58:15.185Z,50.63
2019-05-13T02:00:46.048Z,53.92
2019-05-13T02:03:16.985Z,48.58
2019-05-13T02:05:47.816Z,52.10
2019-05-13T02:08:18.755Z,51.98
2019-05-13T02:10:56.589Z,50.63
2019-05-13T02:13:27.431Z,50.83
2019-05-13T02:15:58.206Z,48.28
2019-05-13T02:18:29.078Z,53.48
2019-05-13T02:20:59.893Z,54.50
2019-05-13T02:23:30.934Z,48.80
2019-05-13T02:26:04.227Z,51.75
2019-05-13T02:28:36.685Z,51.83
2019-05-13T02:31:07.853Z,49.03
2019-05-13T02:33:42.373Z,48.68
2019-05-13T02:36:13.495Z,49.90
2019-05-13T02:38:45.877Z,47.93
2019-05-13T02:41:16.912Z,51.50
2019-05-13T02:43:48.665Z,49.75
2019-05-13T02:46:22.422Z,46.92
2019-05-13T02:48:52.748Z,48.55
2019-05-13T02:51:24.589Z,56.35
2019-05-13T02:53:55.185Z,49.18
2019-05-13T02:56:26.118Z,53.55
2019-05-13T02:58:57.168Z,45.08
2019-05-13T03:01:28.101Z,41.45
2019-05-13T03:03:58.897Z,39.05
2019-05-13T03:06:33.181Z,35.60
2019-05-13T03:09:03.304Z,33.53
2019-05-13T03:11:34.416Z,35.08
2019-05-13T03:14:05.510Z,42.10
2019-05-13T03:16:52.976Z,35.48
2019-05-13T03:19:24.516Z,36.25
2019-05-13T03:21:55.469Z,39.73
2019-05-13T03:24:26.093Z,37.67
2019-05-13T03:26:57.019Z,38.53
2019-05-13T03:29:27.896Z,29.52
2019-05-13T03:31:59.585Z,31.15
2019-05-13T03:34:36.203Z,37.03
2019-05-13T03:37:06.830Z,25.92
2019-05-13T03:39:37.739Z,25.35
2019-05-13T03:42:12.294Z,23.95
2019-05-13T03:44:45.053Z,28.73
2019-05-13T03:47:17.423Z,22.93
2019-05-13T03:49:49.589Z,28.10
2019-05-13T03:52:22.517Z,24.25
2019-05-13T03:54:55.971Z,26.90
2019-05-13T03:57:27.138Z,31.80
2019-05-13T03:59:57.850Z,32.90
2019-05-13T04:02:32.543Z,31.77
2019-05-13T04:05:04.151Z,43.90
2019-05-13T04:07:35.384Z,35.28
2019-05-13T04:10:08.161Z,31.17
2019-05-13T04:12:38.725Z,37.63
2019-05-13T04:15:12.855Z,24.20
2019-05-13T04:17:43.517Z,23.98
2019-05-13T04:20:16.301Z,42.67
2019-05-13T04:22:47.186Z,24.98
2019-05-13T04:25:18.077Z,21.17
2019-05-13T04:27:52.413Z,24.37
2019-05-13T04:30:23.010Z,39.08
2019-05-13T04:32:53.798Z,23.50
2019-05-13T04:35:24.723Z,31.87
2019-05-13T04:37:55.466Z,32.03
2019-05-13T04:40:26.662Z,20.08
2019-05-13T04:42:57.624Z,26.35
2019-05-13T04:45:32.664Z,24.65
2019-05-13T04:48:03.196Z,38.98
2019-05-13T04:50:34.319Z,31.90
2019-05-13T04:53:05.343Z,28.02
2019-05-13T04:55:38.229Z,22.17
2019-05-13T04:58:12.686Z,31.57
2019-05-13T05:00:50.021Z,25.60
2019-05-13T05:03:45.702Z,25.90
2019-05-13T05:06:42.386Z,26.52
2019-05-13T05:09:43.199Z,22.70
2019-05-13T05:12:16.929Z,38.08
2019-05-13T05:15:05.934Z,37.08
2019-05-13T05:17:48.551Z,26.02
2019-05-13T05:20:42.997Z,30.60
2019-05-13T05:23:32.970Z,34.35
2019-05-13T05:26:16.305Z,40.15
2019-05-13T05:29:03.418Z,41.08
2019-05-13T05:31:52.093Z,40.17
2019-05-13T05:34:51.957Z,61.75
2019-05-13T05:37:43.811Z,45.00
2019-05-13T05:40:28.194Z,45.67
2019-05-13T05:42:51.803Z,45.23
2019-05-13T05:45:23.260Z,39.95
2019-05-13T05:47:55.866Z,34.10
2019-05-13T05:50:28.235Z,42.27
2019-05-13T05:53:01.848Z,51.18
2019-05-13T05:55:35.342Z,30.77
2019-05-13T07:43:51.765Z,34.25
2019-05-13T07:46:22.877Z,22.35
2019-05-13T07:48:54.945Z,21.48
2019-05-13T07:51:25.766Z,27.93
2019-05-13T07:53:56.807Z,24.95
2019-05-13T07:56:27.637Z,20.43
2019-05-13T07:59:01.485Z,20.95
2019-05-13T08:01:32.779Z,22.35
2019-05-13T08:04:03.466Z,16.75
2019-05-13T08:06:34.564Z,20.32
2019-05-13T08:09:08.201Z,25.27
2019-05-13T08:11:55.588Z,14.53
2019-05-13T08:14:12.376Z,16.07
2019-05-13T08:16:43.394Z,29.05
2019-05-13T08:19:14.376Z,24.12
2019-05-13T08:21:45.233Z,18.80
2019-05-13T08:24:17.173Z,17.90
2019-05-13T08:26:50.057Z,28.05
2019-05-13T08:29:21.635Z,22.95
2019-05-13T08:31:52.331Z,29.25
2019-05-13T08:34:22.940Z,16.93
2019-05-13T08:36:53.902Z,14.23
2019-05-13T08:39:26.792Z,16.95
2019-05-13T08:42:11.712Z,21.50
2019-05-13T08:44:32.236Z,20.45
2019-05-13T08:47:03.627Z,18.30
2019-05-13T08:49:35.445Z,9.78
2019-05-13T08:52:06.186Z,9.23
2019-05-13T08:54:37.161Z,20.80
2019-05-13T08:57:08.159Z,18.57
2019-05-13T08:59:39.115Z,21.62
2019-05-13T09:02:12.922Z,14.25
2019-05-13T09:04:43.532Z,18.17
2019-05-13T09:07:16.316Z,19.40
2019-05-13T09:09:47.371Z,16.30
2019-05-13T09:12:29.567Z,22.20
2019-05-13T09:14:52.404Z,22.63
2019-05-13T09:17:23.131Z,21.70
2019-05-13T09:19:54.066Z,31.37
2019-05-13T09:22:24.940Z,20.25
2019-05-13T09:24:55.948Z,21.33
2019-05-13T09:27:27.393Z,20.52
2019-05-13T09:29:58.134Z,15.15
2019-05-13T09:32:31.821Z,11.60
2019-05-13T09:35:03.175Z,24.32
2019-05-13T09:37:34.157Z,15.55
2019-05-13T09:40:06.120Z,16.27
2019-05-13T09:42:48.155Z,17.07
2019-05-13T09:45:12.277Z,19.52
2019-05-13T09:47:42.379Z,14.25
2019-05-13T09:50:27.996Z,15.98
2019-05-13T09:52:45.978Z,20.32
2019-05-13T09:55:28.290Z,18.37
2019-05-13T09:57:52.610Z,18.42
2019-05-13T10:00:23.952Z,12.10
2019-05-13T10:02:54.833Z,20.97
2019-05-13T10:05:25.483Z,16.77
2019-05-13T10:07:56.322Z,16.90
2019-05-13T10:10:27.165Z,12.65
2019-05-13T10:13:09.298Z,16.10
2019-05-13T10:15:32.758Z,14.13
2019-05-13T10:18:03.577Z,18.80
2019-05-13T10:20:43.753Z,22.15
2019-05-13T10:23:15.257Z,37.78
2019-05-13T10:25:52.191Z,25.23
2019-05-13T10:28:23.748Z,25.95
2019-05-13T10:30:54.504Z,22.77
2019-05-13T10:33:25.558Z,30.50
2019-05-13T10:35:56.868Z,31.50
2019-05-13T10:38:28.147Z,29.50
2019-05-13T10:40:59.426Z,30.48
2019-05-13T10:43:32.179Z,27.30
2019-05-13T10:46:03.176Z,23.90
2019-05-13T10:48:34.465Z,25.85
2019-05-13T10:51:06.229Z,28.10
2019-05-13T10:53:36.948Z,22.90
2019-05-13T10:56:12.830Z,25.02
2019-05-13T10:58:44.936Z,24.98
2019-05-13T11:01:15.714Z,25.05
2019-05-13T11:03:46.342Z,22.90
2019-05-13T11:06:22.001Z,24.00
2019-05-13T11:08:53.124Z,22.75
2019-05-13T11:11:25.553Z,24.77
2019-05-13T11:14:11.010Z,28.00
2019-05-13T11:16:37.671Z,20.15
2019-05-13T11:19:11.427Z,22.65
2019-05-13T11:21:44.303Z,30.60
2019-05-13T11:26:45.143Z,30.48
2019-05-13T11:29:15.979Z,24.40
2019-05-13T11:31:52.265Z,31.40
2019-05-13T11:34:23.588Z,32.08
2019-05-13T11:36:54.398Z,31.70
2019-05-13T11:39:25.459Z,29.45
2019-05-13T11:41:56.398Z,24.23
2019-05-13T11:44:27.440Z,39.27
2019-05-13T11:46:58.684Z,17.75
2019-05-13T11:49:31.656Z,24.82
2019-05-13T11:52:03.263Z,34.13
2019-05-13T11:54:34.292Z,26.82
2019-05-13T11:57:06.757Z,21.17
2019-05-13T11:59:37.827Z,25.35
2019-05-13T12:02:09.023Z,18.87
2019-05-13T12:04:43.119Z,17.48
2019-05-13T12:07:13.811Z,19.73
2019-05-13T12:09:44.595Z,16.35
2019-05-13T12:12:16.451Z,21.20
2019-05-13T12:15:16.161Z,21.97
2019-05-13T12:17:22.458Z,40.10
2019-05-13T12:19:54.218Z,27.27
2019-05-13T12:22:25.119Z,11.63
2019-05-13T12:24:56.059Z,18.10
2019-05-13T12:27:27.217Z,16.23
2019-05-13T12:29:58.177Z,8.60
2019-05-13T12:32:32.093Z,13.20
2019-05-13T12:35:03.483Z,13.13
2019-05-13T12:37:34.069Z,17.05
2019-05-13T12:40:05.573Z,18.20
2019-05-13T12:42:43.123Z,28.07
2019-05-13T12:45:13.925Z,16.12
2019-05-13T12:50:15.479Z,15.78
2019-05-13T12:52:47.769Z,14.75
2019-05-13T12:55:18.672Z,16.40
2019-05-13T12:57:52.077Z,14.53
2019-05-13T13:00:23.704Z,19.73
2019-05-13T13:02:55.764Z,33.45
2019-05-13T13:05:33.163Z,31.30
2019-05-13T13:08:17.097Z,25.43
2019-05-13T13:10:34.490Z,24.63
2019-05-13T13:13:05.174Z,26.60
2019-05-13T13:15:41.902Z,27.45
2019-05-13T13:18:13.979Z,39.15
2019-05-13T13:20:42.308Z,58.52
2019-05-13T13:23:15.068Z,59.08
2019-05-13T13:25:52.695Z,70.70
2019-05-13T13:28:18.163Z,66.37
2019-05-13T13:30:52.534Z,68.87
2019-05-13T13:33:23.539Z,43.92
2019-05-13T13:38:26.719Z,26.52
2019-05-13T13:40:57.971Z,28.23
2019-05-13T13:43:28.905Z,20.35
2019-05-13T13:46:23.185Z,19.52
2019-05-13T13:48:33.749Z,21.70
2019-05-13T13:51:05.340Z,15.85
2019-05-13T13:53:36.545Z,14.45
2019-05-13T13:56:07.999Z,18.32
2019-05-13T13:58:43.819Z,23.55
2019-05-13T14:01:19.771Z,15.30
2019-05-13T14:03:47.369Z,15.50
2019-05-13T14:07:11.709Z,36.05
2019-05-13T14:07:22.012Z,13.68
2019-05-13T14:08:53.274Z,18.57
2019-05-13T14:11:25.230Z,15.63
2019-05-13T14:13:56.436Z,15.15
2019-05-13T14:16:32.517Z,15.48
2019-05-13T14:19:03.124Z,17.12
2019-05-13T14:21:33.647Z,16.40
2019-05-13T14:24:05.549Z,11.88
2019-05-13T14:26:36.444Z,17.52
2019-05-13T14:29:07.421Z,15.68
2019-05-13T14:31:38.414Z,10.72
2019-05-13T14:34:11.462Z,16.12
2019-05-13T14:36:41.838Z,23.30
2019-05-13T14:39:12.674Z,28.73
2019-05-13T14:41:44.009Z,31.40
2019-05-13T14:44:16.856Z,45.78
2019-05-13T14:46:48.195Z,34.65
2019-05-13T14:49:22.492Z,35.65
2019-05-13T14:51:56.294Z,30.30
2019-05-13T14:54:27.425Z,28.57
2019-05-13T14:56:58.546Z,32.75
2019-05-13T14:59:31.465Z,34.10
2019-05-13T15:02:02.566Z,39.78
2019-05-13T15:04:33.809Z,22.95
2019-05-13T15:07:04.685Z,16.35
2019-05-13T15:09:35.891Z,17.12
2019-05-13T15:12:06.834Z,21.10
2019-05-13T15:14:40.083Z,21.55
2019-05-13T15:17:12.852Z,24.13
2019-05-13T15:19:43.607Z,24.63
2019-05-13T15:22:17.028Z,28.42
2019-05-13T15:24:48.206Z,33.33
2019-05-13T15:27:22.071Z,25.95
2019-05-13T15:29:52.606Z,23.22
2019-05-13T15:32:23.546Z,26.02
2019-05-13T15:34:54.692Z,25.82
2019-05-13T15:37:26.081Z,31.73
2019-05-13T15:39:57.174Z,25.45
2019-05-13T15:42:28.055Z,19.80
2019-05-13T15:45:01.610Z,29.45
2019-05-13T15:47:31.527Z,21.50
2019-05-13T15:50:03.273Z,35.33
2019-05-13T15:52:33.916Z,40.12
2019-05-13T15:55:06.389Z,24.32
2019-05-13T15:57:37.115Z,18.77
2019-05-13T16:00:08.770Z,31.17
2019-05-13T16:02:41.978Z,35.28
2019-05-13T16:05:13.106Z,37.65
2019-05-13T16:07:43.768Z,28.47
2019-05-13T16:10:14.825Z,24.25
2019-05-13T16:12:45.952Z,22.87
2019-05-13T16:15:18.882Z,27.85
2019-05-13T16:17:52.172Z,35.38
2019-05-13T16:20:22.926Z,30.85
2019-05-13T16:22:53.933Z,34.85
2019-05-13T16:25:27.108Z,39.23
2019-05-13T16:28:01.344Z,36.13
2019-05-13T16:30:32.474Z,38.53
2019-05-13T16:33:03.720Z,22.17
2019-05-13T16:35:34.803Z,19.67
2019-05-13T16:38:05.631Z,21.87
2019-05-13T16:40:36.969Z,16.95
2019-05-13T16:43:07.950Z,18.50
2019-05-13T16:45:41.610Z,18.17
2019-05-13T16:48:12.300Z,14.75
2019-05-13T16:50:43.388Z,17.05
2019-05-13T16:53:14.321Z,17.55
2019-05-13T16:55:46.087Z,16.17
2019-05-13T16:58:18.499Z,16.67
2019-05-13T17:00:51.606Z,20.75
2019-05-13T17:03:21.859Z,20.05
2019-05-13T17:05:53.000Z,16.12
2019-05-13T17:08:24.038Z,11.85
2019-05-13T17:10:56.520Z,14.63
2019-05-13T17:13:27.582Z,18.67
2019-05-13T17:16:01.391Z,14.45
2019-05-13T17:18:32.347Z,21.25
2019-05-13T17:21:04.360Z,20.60
2019-05-13T17:23:35.409Z,16.42
2019-05-13T17:26:07.468Z,29.95
2019-05-13T17:28:41.474Z,51.68
2019-05-13T17:31:11.688Z,52.95
2019-05-13T17:33:42.742Z,75.50
2019-05-13T17:36:13.776Z,57.67
2019-05-13T17:38:44.636Z,62.13
2019-05-13T17:41:15.646Z,54.60
2019-05-13T17:43:46.684Z,47.55
2019-05-13T17:46:17.624Z,52.78
2019-05-13T17:48:51.888Z,37.28
2019-05-13T17:51:22.657Z,29.30
2019-05-13T17:53:53.722Z,23.18
2019-05-13T17:56:24.754Z,14.70
2019-05-13T17:58:55.929Z,10.43
2019-05-13T18:01:27.443Z,13.53
2019-05-13T18:03:57.880Z,11.12
2019-05-13T18:06:28.934Z,16.23
2019-05-13T18:09:01.218Z,14.63
2019-05-13T18:11:32.359Z,11.40
2019-05-13T18:14:03.464Z,11.65
2019-05-13T18:16:34.400Z,14.53
2019-05-13T18:19:06.153Z,13.05
2019-05-13T18:21:36.893Z,16.27
2019-05-13T18:24:08.038Z,20.52
2019-05-13T18:26:41.566Z,24.15
2019-05-13T18:29:12.262Z,22.98
2019-05-13T18:31:43.536Z,18.70
2019-05-13T18:34:14.439Z,23.62
2019-05-13T18:36:45.286Z,20.43
2019-05-13T18:39:17.950Z,22.60
2019-05-13T18:41:48.916Z,28.62
2019-05-13T18:44:19.930Z,25.48
2019-05-13T18:46:52.354Z,20.48
2019-05-13T18:49:24.059Z,20.10
2019-05-13T18:51:54.998Z,25.08
2019-05-13T18:54:25.833Z,29.90
2019-05-13T18:56:56.553Z,33.83
2019-05-13T18:59:27.608Z,35.23
2019-05-13T19:02:01.461Z,33.55
2019-05-13T19:04:31.900Z,37.55
2019-05-13T19:07:03.632Z,43.73
2019-05-13T19:09:34.937Z,32.42
2019-05-13T19:12:06.779Z,29.87
2019-05-13T19:14:41.169Z,31.05
2019-05-13T19:17:12.327Z,29.92
2019-05-13T19:19:43.083Z,25.27
2019-05-13T19:22:14.140Z,26.60
2019-05-13T19:24:45.064Z,25.02
2019-05-13T19:27:16.103Z,27.20
2019-05-13T19:29:47.024Z,23.30
2019-05-13T19:32:17.896Z,24.00
2019-05-13T19:34:51.621Z,14.70
2019-05-13T19:37:22.541Z,18.48
2019-05-13T19:39:53.659Z,17.27
2019-05-13T19:42:24.182Z,14.90
2019-05-13T19:44:55.538Z,17.32
2019-05-13T19:47:26.570Z,14.47
2019-05-13T19:49:58.636Z,18.62
2019-05-13T19:52:32.065Z,19.35
2019-05-13T19:55:02.251Z,17.35
2019-05-13T19:57:32.939Z,17.85
2019-05-13T20:00:13.396Z,17.98
2019-05-13T20:02:42.372Z,15.80
2019-05-13T20:05:13.267Z,16.90
2019-05-13T20:07:44.206Z,18.12
2019-05-13T20:10:15.576Z,18.70
2019-05-13T20:12:45.980Z,22.93
2019-05-13T20:15:17.224Z,17.80
2019-05-13T20:17:48.673Z,20.90
2019-05-13T20:20:21.191Z,20.75
2019-05-13T20:22:52.865Z,21.55
2019-05-13T20:25:23.945Z,27.20
2019-05-13T20:27:54.882Z,39.13
2019-05-13T20:30:25.813Z,38.02
2019-05-13T20:32:56.855Z,39.92
2019-05-13T20:35:28.202Z,35.30
2019-05-13T20:37:59.136Z,31.10
2019-05-13T20:40:32.268Z,31.37
2019-05-13T20:43:02.963Z,31.02
2019-05-13T20:45:33.868Z,27.62
2019-05-13T20:48:05.446Z,32.50
2019-05-13T20:50:36.301Z,32.80
2019-05-13T20:53:07.246Z,36.23
2019-05-13T20:55:38.268Z,32.98
2019-05-13T20:58:09.296Z,41.33
2019-05-13T21:00:42.230Z,38.05
2019-05-13T21:03:12.455Z,35.45
2019-05-13T21:05:43.470Z,29.75
2019-05-13T21:08:14.277Z,30.05
2019-05-13T21:10:46.957Z,36.53
2019-05-13T21:13:17.785Z,47.35
2019-05-13T21:15:48.729Z,46.63
2019-05-13T21:18:22.000Z,41.25
2019-05-13T21:20:51.934Z,35.15
2019-05-13T21:23:23.075Z,42.05
2019-05-13T21:25:53.926Z,32.50
2019-05-13T21:28:26.383Z,30.97
2019-05-13T21:30:56.899Z,30.85
2019-05-13T21:33:27.866Z,38.05
2019-05-13T21:35:58.817Z,31.20
2019-05-13T21:38:32.225Z,42.20
2019-05-13T21:41:02.400Z,33.05
2019-05-13T21:43:33.336Z,39.75
2019-05-13T21:46:05.296Z,35.80
2019-05-13T21:48:36.031Z,36.53
2019-05-13T21:51:06.964Z,43.55
2019-05-13T21:53:37.908Z,38.13
2019-05-13T21:56:08.845Z,39.50
2019-05-13T21:58:41.623Z,38.00
2019-05-13T22:01:11.905Z,37.23
2019-05-13T22:03:42.900Z,36.58
2019-05-13T22:06:13.782Z,35.83
2019-05-13T22:08:44.756Z,28.02
2019-05-13T22:11:18.352Z,33.23
2019-05-13T22:13:51.261Z,31.10
2019-05-13T22:16:21.558Z,40.73
2019-05-13T22:18:52.606Z,36.60
2019-05-13T22:21:23.430Z,37.42
2019-05-13T22:23:54.296Z,43.83
2019-05-13T22:26:25.727Z,43.70
2019-05-13T22:28:57.475Z,47.83
2019-05-13T22:31:31.139Z,49.18
2019-05-13T22:34:01.813Z,45.40
2019-05-13T22:36:32.757Z,34.95
2019-05-13T22:39:04.360Z,38.90
2019-05-13T22:41:34.927Z,36.38
2019-05-13T22:44:05.824Z,38.08
2019-05-13T22:46:37.729Z,47.27
2019-05-13T22:49:08.559Z,40.43
2019-05-13T22:51:41.248Z,48.15
2019-05-13T22:54:12.128Z,56.60
2019-05-13T22:56:43.034Z,58.87
2019-05-13T22:59:13.805Z,55.80
2019-05-13T23:01:44.696Z,52.80
2019-05-13T23:04:15.611Z,50.08
2019-05-13T23:06:46.445Z,50.17
2019-05-13T23:09:17.179Z,53.25
2019-05-13T23:11:48.017Z,49.93
2019-05-13T23:14:18.950Z,49.00
2019-05-13T23:16:49.681Z,48.75
2019-05-13T23:19:21.716Z,56.40
2019-05-13T23:21:52.690Z,56.58
2019-05-13T23:24:23.212Z,45.63
2019-05-13T23:26:54.369Z,43.58
2019-05-13T23:29:25.392Z,39.00
2019-05-13T23:31:56.330Z,35.95
2019-05-13T23:34:27.191Z,39.55
2019-05-13T23:36:58.104Z,44.23
2019-05-13T23:39:29.072Z,47.62
2019-05-13T23:42:01.427Z,45.80
2019-05-13T23:44:32.557Z,48.85
2019-05-13T23:47:03.648Z,55.23
2019-05-13T23:49:34.434Z,49.98
2019-05-13T23:52:05.331Z,48.00
2019-05-13T23:54:36.507Z,52.20
2019-05-13T23:57:08.157Z,42.48
2019-05-13T23:59:41.674Z,42.25
